Time;durP1;ratioP1;P1;durP2;ratioP2;P2;SDS_P1;SDS_P2;PMS_P1;PMS_P2;Temp;Humidity;BMP_temperature;BMP_pressure;BME280_temperature;BME280_humidity;BME280_pressure;Samples;Min_cycle;Max_cycle;Signal;HPM_P1;HPM_P2
2021/10/24 00:01:53;;;;;;;8.82;3.95;;;;;;;;;;5094118;28;20024;-70
2021/10/24 00:04:19;;;;;;;7.72;3.90;;;;;;;;;;5094042;28;20028;-70
2021/10/24 00:06:46;;;;;;;12.23;4.20;;;;;;;;;;5092476;28;20024;-71
2021/10/24 00:09:12;;;;;;;8.73;4.50;;;;;;;;;;5093757;28;20057;-71
2021/10/24 00:11:38;;;;;;;7.72;3.72;;;;;;;;;;5093998;28;20024;-71
2021/10/24 00:14:07;;;;;;;7.72;3.95;;;;;;;;;;5093641;28;20016;-70
2021/10/24 00:16:33;;;;;;;8.27;4.00;;;;;;;;;;5094057;28;20023;-70
2021/10/24 00:19:00;;;;;;;9.45;4.22;;;;;;;;;;5094270;28;20527;-70
2021/10/24 00:21:26;;;;;;;9.25;4.47;;;;;;;;;;5093552;28;20108;-71
2021/10/24 00:23:53;;;;;;;9.43;4.05;;;;;;;;;;5093817;28;20491;-71
2021/10/24 00:26:19;;;;;;;10.13;5.07;;;;;;;;;;5093447;28;20035;-71
2021/10/24 00:28:45;;;;;;;10.02;4.40;;;;;;;;;;5093722;28;20024;-71
2021/10/24 00:31:12;;;;;;;9.23;4.00;;;;;;;;;;5093608;28;20578;-71
2021/10/24 00:33:38;;;;;;;8.00;4.30;;;;;;;;;;5093371;28;20103;-71
2021/10/24 00:36:04;;;;;;;9.85;4.05;;;;;;;;;;5093657;28;20028;-71
2021/10/24 00:38:30;;;;;;;8.57;4.65;;;;;;;;;;5093642;28;20477;-71
2021/10/24 00:40:56;;;;;;;6.93;4.05;;;;;;;;;;5093157;28;20028;-71
2021/10/24 00:43:23;;;;;;;9.98;4.57;;;;;;;;;;5093332;28;20023;-72
2021/10/24 00:45:49;;;;;;;9.43;4.47;;;;;;;;;;5093324;28;20024;-71
2021/10/24 00:48:15;;;;;;;9.32;4.95;;;;;;;;;;5093004;28;20093;-71
2021/10/24 00:50:42;;;;;;;9.10;4.72;;;;;;;;;;5093366;28;20480;-71
2021/10/24 00:53:09;;;;;;;7.88;4.25;;;;;;;;;;5093348;28;20024;-71
2021/10/24 00:55:35;;;;;;;9.63;4.22;;;;;;;;;;5092952;28;20028;-70
2021/10/24 00:58:01;;;;;;;9.35;4.55;;;;;;;;;;5093373;28;20094;-71
2021/10/24 01:00:27;;;;;;;10.13;5.22;;;;;;;;;;5093327;28;20361;-71
2021/10/24 01:02:54;;;;;;;11.00;4.93;;;;;;;;;;5091522;28;20024;-71
2021/10/24 01:05:20;;;;;;;14.48;4.35;;;;;;;;;;5093434;28;20117;-71
2021/10/24 01:07:47;;;;;;;8.50;4.10;;;;;;;;;;5093400;28;20028;-71
2021/10/24 01:10:15;;;;;;;14.52;4.50;;;;;;;;;;5092611;28;20456;-72
2021/10/24 01:12:50;;;;;;;10.10;4.40;;;;;;;;;;5093070;28;20556;-71
2021/10/24 01:15:17;;;;;;;10.38;3.90;;;;;;;;;;5093125;28;20028;-72
2021/10/24 01:17:44;;;;;;;7.63;3.85;;;;;;;;;;5092939;28;20414;-71
2021/10/24 01:20:15;;;;;;;9.00;3.88;;;;;;;;;;5093113;28;20099;-71
2021/10/24 01:22:41;;;;;;;7.10;3.67;;;;;;;;;;5093250;28;20433;-71
2021/10/24 01:25:08;;;;;;;10.88;3.80;;;;;;;;;;5093064;28;20024;-71
2021/10/24 01:27:37;;;;;;;6.70;3.50;;;;;;;;;;5091758;28;20020;-71
2021/10/24 01:30:07;;;;;;;7.18;3.88;;;;;;;;;;5091136;28;20028;-71
2021/10/24 01:32:34;;;;;;;8.35;4.15;;;;;;;;;;5092928;28;20032;-71
2021/10/24 01:35:00;;;;;;;6.43;3.47;;;;;;;;;;5092939;28;20098;-70
2021/10/24 01:37:33;;;;;;;7.53;3.83;;;;;;;;;;5092548;28;20065;-69
2021/10/24 01:40:00;;;;;;;8.48;3.72;;;;;;;;;;5092910;28;20020;-69
2021/10/24 01:42:26;;;;;;;8.18;3.20;;;;;;;;;;5092837;28;20028;-71
2021/10/24 01:44:52;;;;;;;8.65;3.90;;;;;;;;;;5092745;28;20107;-71
2021/10/24 01:47:19;;;;;;;10.88;3.85;;;;;;;;;;5093087;28;20024;-69
2021/10/24 01:49:45;;;;;;;7.15;3.80;;;;;;;;;;5092630;28;20036;-69
2021/10/24 01:52:11;;;;;;;9.45;4.03;;;;;;;;;;5092361;28;20529;-69
2021/10/24 01:54:37;;;;;;;8.50;3.95;;;;;;;;;;5092658;28;20115;-69
2021/10/24 01:57:03;;;;;;;6.82;3.38;;;;;;;;;;5094880;28;20020;-69
2021/10/24 01:59:30;;;;;;;8.88;3.25;;;;;;;;;;5095683;28;20488;-70
2021/10/24 02:01:56;;;;;;;5.93;3.35;;;;;;;;;;5095373;28;20032;-68
2021/10/24 02:04:22;;;;;;;7.82;3.75;;;;;;;;;;5096390;28;20202;-70
2021/10/24 02:06:48;;;;;;;7.47;3.92;;;;;;;;;;5094757;28;20028;-70
2021/10/24 02:09:14;;;;;;;6.80;3.53;;;;;;;;;;5095859;28;20395;-70
2021/10/24 02:11:41;;;;;;;8.43;4.70;;;;;;;;;;5096161;28;20099;-69
2021/10/24 02:14:07;;;;;;;6.50;4.03;;;;;;;;;;5096134;28;20020;-70
2021/10/24 02:16:33;;;;;;;6.38;3.63;;;;;;;;;;5096037;28;20027;-70
2021/10/24 02:18:59;;;;;;;7.60;4.03;;;;;;;;;;5095751;28;20031;-70
2021/10/24 02:21:25;;;;;;;8.20;4.47;;;;;;;;;;5096089;28;20031;-70
2021/10/24 02:23:52;;;;;;;7.82;4.07;;;;;;;;;;5096271;28;20018;-69
2021/10/24 02:26:18;;;;;;;8.32;4.25;;;;;;;;;;5095797;28;20123;-69
2021/10/24 02:28:44;;;;;;;8.98;4.28;;;;;;;;;;5096167;28;20024;-69
2021/10/24 02:31:10;;;;;;;10.00;4.90;;;;;;;;;;5095929;28;20047;-69
2021/10/24 02:33:36;;;;;;;9.35;4.60;;;;;;;;;;5095491;28;20028;-69
2021/10/24 02:36:02;;;;;;;7.82;4.00;;;;;;;;;;5095983;28;20031;-69
2021/10/24 02:38:29;;;;;;;7.88;4.30;;;;;;;;;;5095802;28;20484;-69
2021/10/24 02:40:55;;;;;;;6.80;4.05;;;;;;;;;;5095341;28;20107;-69
2021/10/24 02:43:21;;;;;;;10.43;5.40;;;;;;;;;;5095763;28;20024;-70
2021/10/24 02:45:47;;;;;;;10.13;5.32;;;;;;;;;;5095700;28;20082;-69
2021/10/24 02:48:13;;;;;;;9.75;5.32;;;;;;;;;;5095284;28;20502;-70
2021/10/24 02:50:40;;;;;;;8.48;4.72;;;;;;;;;;5094102;28;20040;-70
2021/10/24 02:53:06;;;;;;;10.73;4.72;;;;;;;;;;5095531;28;20105;-69
2021/10/24 02:55:32;;;;;;;10.93;4.50;;;;;;;;;;5095049;28;20024;-70
2021/10/24 02:57:58;;;;;;;11.20;4.80;;;;;;;;;;5095581;28;20044;-70
2021/10/24 03:00:25;;;;;;;6.75;4.03;;;;;;;;;;5095461;28;20028;-69
2021/10/24 03:02:51;;;;;;;10.13;4.25;;;;;;;;;;5095013;28;20024;-69
2021/10/24 03:05:17;;;;;;;10.85;5.38;;;;;;;;;;5095603;28;20054;-69
2021/10/24 03:07:43;;;;;;;11.35;4.20;;;;;;;;;;5095151;28;20024;-69
2021/10/24 03:10:10;;;;;;;7.60;3.92;;;;;;;;;;5094607;28;20158;-70
2021/10/24 03:12:36;;;;;;;6.95;4.47;;;;;;;;;;5095057;28;20042;-69
2021/10/24 03:15:03;;;;;;;8.20;3.88;;;;;;;;;;5094651;28;20024;-69
2021/10/24 03:17:29;;;;;;;7.55;4.30;;;;;;;;;;5095146;28;20103;-69
2021/10/24 03:19:55;;;;;;;10.63;5.13;;;;;;;;;;5095503;28;20035;-69
2021/10/24 03:22:21;;;;;;;8.13;4.55;;;;;;;;;;5094509;28;20472;-69
2021/10/24 03:24:47;;;;;;;7.90;4.53;;;;;;;;;;5093745;28;20050;-69
2021/10/24 03:27:14;;;;;;;8.52;4.97;;;;;;;;;;5095063;28;20017;-69
2021/10/24 03:29:40;;;;;;;11.13;4.47;;;;;;;;;;5093053;28;20059;-69
2021/10/24 03:32:06;;;;;;;8.68;4.93;;;;;;;;;;5094707;28;20032;-70
2021/10/24 03:34:32;;;;;;;8.98;4.63;;;;;;;;;;5094567;28;20036;-69
2021/10/24 03:36:59;;;;;;;7.93;4.47;;;;;;;;;;5094548;28;20466;-69
2021/10/24 03:39:25;;;;;;;10.98;4.32;;;;;;;;;;5094531;28;20046;-69
2021/10/24 03:41:51;;;;;;;7.82;4.55;;;;;;;;;;5094401;28;20085;-70
2021/10/24 03:44:17;;;;;;;8.55;4.60;;;;;;;;;;5094161;28;20027;-70
2021/10/24 03:46:43;;;;;;;12.98;5.20;;;;;;;;;;5093117;28;20374;-70
2021/10/24 03:49:09;;;;;;;9.65;5.10;;;;;;;;;;5094777;28;20028;-70
2021/10/24 03:51:36;;;;;;;7.90;5.05;;;;;;;;;;5093951;28;20031;-70
2021/10/24 03:54:02;;;;;;;7.88;3.80;;;;;;;;;;5094297;28;20047;-70
2021/10/24 03:56:28;;;;;;;8.15;4.63;;;;;;;;;;5094483;28;20059;-70
2021/10/24 03:58:54;;;;;;;8.40;4.53;;;;;;;;;;5092587;28;20487;-69
2021/10/24 04:01:20;;;;;;;10.43;5.38;;;;;;;;;;5094134;28;20028;-69
2021/10/24 04:03:46;;;;;;;12.77;4.32;;;;;;;;;;5093935;28;20480;-67
2021/10/24 04:06:13;;;;;;;10.65;5.20;;;;;;;;;;5093696;28;20020;-69
2021/10/24 04:08:39;;;;;;;10.50;4.90;;;;;;;;;;5094223;28;20016;-67
2021/10/24 04:11:05;;;;;;;8.88;4.90;;;;;;;;;;5094023;28;20036;-69
2021/10/24 04:13:31;;;;;;;9.13;5.25;;;;;;;;;;5092220;28;20028;-68
2021/10/24 04:15:57;;;;;;;11.27;6.30;;;;;;;;;;5093915;28;20031;-69
2021/10/24 04:18:24;;;;;;;8.85;4.93;;;;;;;;;;5093169;28;20024;-69
2021/10/24 04:20:50;;;;;;;10.48;5.43;;;;;;;;;;5093731;28;20380;-69
2021/10/24 04:23:16;;;;;;;10.32;5.47;;;;;;;;;;5092472;28;20035;-69
2021/10/24 04:25:42;;;;;;;10.73;5.75;;;;;;;;;;5092178;28;20020;-70
2021/10/24 04:28:08;;;;;;;12.52;6.45;;;;;;;;;;5092502;28;20055;-69
2021/10/24 04:30:34;;;;;;;9.50;5.57;;;;;;;;;;5093657;28;20074;-70
2021/10/24 04:33:01;;;;;;;11.50;6.03;;;;;;;;;;5093238;28;20110;-69
2021/10/24 04:35:27;;;;;;;12.30;6.32;;;;;;;;;;5093635;28;20528;-69
2021/10/24 04:37:53;;;;;;;10.15;5.85;;;;;;;;;;5093846;28;20024;-70
2021/10/24 04:40:19;;;;;;;9.88;5.28;;;;;;;;;;5093524;28;20154;-69
2021/10/24 04:42:45;;;;;;;10.80;5.55;;;;;;;;;;5093599;28;20028;-68
2021/10/24 04:45:12;;;;;;;10.65;5.50;;;;;;;;;;5093494;28;20400;-68
2021/10/24 04:47:39;;;;;;;12.45;5.88;;;;;;;;;;5093105;28;20148;-70
2021/10/24 04:50:05;;;;;;;15.45;5.85;;;;;;;;;;5093628;28;20023;-70
2021/10/24 04:52:31;;;;;;;10.68;5.53;;;;;;;;;;5093584;28;20376;-71
2021/10/24 04:54:57;;;;;;;11.15;5.93;;;;;;;;;;5092901;28;20035;-70
2021/10/24 04:57:24;;;;;;;9.85;6.45;;;;;;;;;;5091972;28;20093;-69
2021/10/24 04:59:50;;;;;;;12.85;6.13;;;;;;;;;;5093375;28;20016;-70
2021/10/24 05:02:16;;;;;;;9.85;5.43;;;;;;;;;;5092738;28;20028;-70
2021/10/24 05:04:42;;;;;;;9.63;5.57;;;;;;;;;;5093478;28;20023;-69
2021/10/24 05:07:08;;;;;;;11.18;5.22;;;;;;;;;;5093157;28;20016;-70
2021/10/24 05:09:35;;;;;;;12.63;6.07;;;;;;;;;;5092478;28;20044;-69
2021/10/24 05:12:01;;;;;;;14.52;6.50;;;;;;;;;;5093335;28;20396;-69
2021/10/24 05:14:27;;;;;;;10.10;5.93;;;;;;;;;;5093035;28;20020;-69
2021/10/24 05:16:53;;;;;;;12.98;6.82;;;;;;;;;;5093252;28;20036;-69
2021/10/24 05:19:19;;;;;;;12.02;6.30;;;;;;;;;;5093025;28;20032;-68
2021/10/24 05:21:46;;;;;;;11.07;5.95;;;;;;;;;;5092653;28;20500;-69
2021/10/24 05:24:12;;;;;;;10.45;5.10;;;;;;;;;;5091693;28;20115;-69
2021/10/24 05:26:38;;;;;;;11.93;6.43;;;;;;;;;;5093119;28;20025;-68
2021/10/24 05:29:04;;;;;;;13.68;7.38;;;;;;;;;;5092604;28;20024;-69
2021/10/24 05:31:31;;;;;;;11.20;6.18;;;;;;;;;;5094884;28;20051;-70
2021/10/24 05:33:57;;;;;;;12.88;6.93;;;;;;;;;;5097064;28;20377;-69
2021/10/24 05:36:24;;;;;;;12.95;7.80;;;;;;;;;;5096796;28;20036;-69
2021/10/24 05:38:50;;;;;;;18.67;7.80;;;;;;;;;;5096837;28;20349;-69
2021/10/24 05:41:16;;;;;;;11.82;6.80;;;;;;;;;;5096783;28;20028;-70
2021/10/24 05:43:42;;;;;;;15.25;8.32;;;;;;;;;;5096442;28;20030;-69
2021/10/24 05:46:09;;;;;;;18.60;9.35;;;;;;;;;;5096791;28;20068;-70
2021/10/24 05:48:35;;;;;;;13.65;8.20;;;;;;;;;;5096796;28;20020;-70
2021/10/24 05:51:01;;;;;;;19.30;10.20;;;;;;;;;;5096313;28;20040;-71
2021/10/24 05:53:27;;;;;;;16.85;9.40;;;;;;;;;;5096720;28;20028;-71
2021/10/24 05:55:54;;;;;;;14.45;8.98;;;;;;;;;;5096702;28;20492;-71
2021/10/24 05:58:20;;;;;;;20.38;10.35;;;;;;;;;;5096257;28;20480;-70
2021/10/24 06:00:47;;;;;;;18.20;9.38;;;;;;;;;;5096422;28;20035;-69
2021/10/24 06:03:13;;;;;;;22.40;11.85;;;;;;;;;;5096517;28;20053;-69
2021/10/24 06:05:41;;;;;;;17.08;8.93;;;;;;;;;;5094706;28;20024;-69
2021/10/24 06:08:10;;;;;;;19.45;9.48;;;;;;;;;;5095034;28;20024;-71
2021/10/24 06:10:40;;;;;;;14.07;8.77;;;;;;;;;;5096205;28;20051;-70
2021/10/24 06:13:07;;;;;;;16.63;9.35;;;;;;;;;;5094676;28;20398;-70
2021/10/24 06:15:37;;;;;;;20.85;10.88;;;;;;;;;;5096325;28;20473;-70
2021/10/24 06:18:03;;;;;;;16.67;8.98;;;;;;;;;;5095900;28;20073;-70
2021/10/24 06:20:30;;;;;;;14.52;8.43;;;;;;;;;;5096174;28;20032;-70
2021/10/24 06:22:56;;;;;;;17.50;8.77;;;;;;;;;;5096133;28;20054;-71
2021/10/24 06:25:22;;;;;;;16.02;9.02;;;;;;;;;;5095729;28;20028;-71
2021/10/24 06:27:48;;;;;;;13.98;8.43;;;;;;;;;;5096162;28;20044;-71
2021/10/24 06:30:17;;;;;;;11.10;7.57;;;;;;;;;;5096044;28;20036;-71
2021/10/24 06:32:44;;;;;;;11.63;6.65;;;;;;;;;;5095638;28;20077;-70
2021/10/24 06:35:10;;;;;;;13.02;7.25;;;;;;;;;;5094642;28;20490;-72
2021/10/24 06:37:39;;;;;;;13.73;7.45;;;;;;;;;;5096079;28;20142;-71
2021/10/24 06:40:06;;;;;;;15.98;8.40;;;;;;;;;;5095536;28;20024;-71
2021/10/24 06:42:32;;;;;;;14.80;8.00;;;;;;;;;;5095346;28;20039;-71
2021/10/24 06:44:59;;;;;;;16.55;9.60;;;;;;;;;;5095673;28;20027;-70
2021/10/24 06:47:25;;;;;;;13.68;7.25;;;;;;;;;;5095333;28;20028;-70
2021/10/24 06:49:51;;;;;;;14.85;8.55;;;;;;;;;;5095467;28;20498;-71
2021/10/24 06:52:17;;;;;;;15.70;8.40;;;;;;;;;;5095571;28;20020;-71
2021/10/24 06:54:43;;;;;;;13.07;7.65;;;;;;;;;;5095108;28;20388;-70
2021/10/24 06:57:10;;;;;;;17.08;7.35;;;;;;;;;;5095692;28;20133;-70
2021/10/24 06:59:42;;;;;;;13.05;6.97;;;;;;;;;;5095323;28;20027;-71
2021/10/24 07:02:08;;;;;;;12.60;6.15;;;;;;;;;;5095172;28;20093;-71
2021/10/24 07:04:34;;;;;;;15.50;8.07;;;;;;;;;;5095467;28;20031;-71
2021/10/24 07:07:00;;;;;;;13.77;6.97;;;;;;;;;;5095193;28;20077;-71
2021/10/24 07:09:26;;;;;;;14.00;7.53;;;;;;;;;;5094633;28;20087;-73
2021/10/24 07:11:53;;;;;;;9.18;5.53;;;;;;;;;;5093940;28;20105;-71
2021/10/24 07:14:19;;;;;;;11.13;6.82;;;;;;;;;;5094881;28;20054;-71
2021/10/24 07:16:45;;;;;;;13.48;7.40;;;;;;;;;;5095179;28;20476;-72
2021/10/24 07:19:11;;;;;;;16.98;8.07;;;;;;;;;;5095068;28;20032;-71
2021/10/24 07:21:37;;;;;;;9.82;5.63;;;;;;;;;;5094723;28;20024;-72
2021/10/24 07:24:04;;;;;;;16.98;8.73;;;;;;;;;;5095111;28;20032;-69
2021/10/24 07:26:31;;;;;;;14.55;8.77;;;;;;;;;;5094787;28;20028;-71
2021/10/24 07:28:57;;;;;;;11.75;7.55;;;;;;;;;;5094611;28;20022;-71
2021/10/24 07:31:24;;;;;;;12.25;6.43;;;;;;;;;;5093490;28;20040;-70
2021/10/24 07:33:51;;;;;;;13.75;7.68;;;;;;;;;;5094795;28;20051;-70
2021/10/24 07:36:17;;;;;;;11.57;6.88;;;;;;;;;;5094565;28;20052;-70
2021/10/24 07:38:43;;;;;;;14.00;8.18;;;;;;;;;;5094751;28;20024;-70
2021/10/24 07:41:09;;;;;;;11.38;7.85;;;;;;;;;;5094729;28;20029;-71
2021/10/24 07:43:35;;;;;;;13.55;8.27;;;;;;;;;;5094261;28;20099;-72
2021/10/24 07:46:02;;;;;;;13.45;7.32;;;;;;;;;;5094628;28;20032;-71
2021/10/24 07:48:28;;;;;;;16.58;8.52;;;;;;;;;;5094601;28;20020;-72
2021/10/24 07:50:54;;;;;;;14.50;7.85;;;;;;;;;;5094063;28;20051;-71
2021/10/24 07:53:25;;;;;;;15.20;8.95;;;;;;;;;;5093850;28;20041;-71
2021/10/24 07:55:52;;;;;;;15.13;8.00;;;;;;;;;;5094281;28;20024;-73
2021/10/24 07:58:18;;;;;;;19.40;9.15;;;;;;;;;;5092554;28;20020;-70
2021/10/24 08:00:45;;;;;;;17.73;10.20;;;;;;;;;;5094013;28;20077;-70
2021/10/24 08:03:11;;;;;;;12.65;6.47;;;;;;;;;;5094351;28;20020;-70
2021/10/24 08:05:37;;;;;;;11.25;7.15;;;;;;;;;;5092509;28;20387;-70
2021/10/24 08:08:03;;;;;;;10.73;6.32;;;;;;;;;;5094193;28;20024;-70
2021/10/24 08:10:29;;;;;;;13.77;5.82;;;;;;;;;;5093872;28;20040;-71
2021/10/24 08:12:56;;;;;;;10.70;5.30;;;;;;;;;;5093630;28;20468;-70
2021/10/24 08:15:22;;;;;;;15.88;6.65;;;;;;;;;;5093947;28;20024;-71
2021/10/24 08:17:48;;;;;;;16.23;7.85;;;;;;;;;;5093801;28;20020;-70
2021/10/24 08:20:15;;;;;;;16.38;7.10;;;;;;;;;;5093888;28;20497;-70
2021/10/24 08:22:41;;;;;;;13.88;6.88;;;;;;;;;;5093866;28;20017;-71
2021/10/24 08:25:08;;;;;;;21.42;8.55;;;;;;;;;;5093428;28;20020;-71
2021/10/24 08:27:35;;;;;;;13.70;7.03;;;;;;;;;;5094012;28;20410;-71
2021/10/24 08:30:02;;;;;;;11.73;6.72;;;;;;;;;;5093727;28;20042;-70
2021/10/24 08:32:28;;;;;;;22.98;11.07;;;;;;;;;;5093490;28;20020;-70
2021/10/24 08:34:55;;;;;;;18.20;8.52;;;;;;;;;;5093744;28;20487;-70
2021/10/24 08:37:21;;;;;;;13.20;7.65;;;;;;;;;;5092349;28;20020;-70
2021/10/24 08:39:52;;;;;;;17.52;8.70;;;;;;;;;;5093339;28;20472;-70
2021/10/24 08:42:19;;;;;;;14.80;7.53;;;;;;;;;;5092246;28;20046;-70
2021/10/24 08:44:45;;;;;;;18.33;9.80;;;;;;;;;;5092120;28;20022;-70
2021/10/24 08:47:12;;;;;;;13.75;7.55;;;;;;;;;;5093027;28;20024;-70
2021/10/24 08:49:38;;;;;;;18.17;10.68;;;;;;;;;;5093410;28;20031;-70
2021/10/24 08:52:06;;;;;;;13.57;7.40;;;;;;;;;;5093538;28;20024;-70
2021/10/24 08:54:35;;;;;;;12.32;5.82;;;;;;;;;;5092732;28;20020;-69
2021/10/24 08:57:01;;;;;;;25.90;10.18;;;;;;;;;;5093118;28;20024;-69
2021/10/24 08:59:27;;;;;;;19.13;10.02;;;;;;;;;;5093268;28;20024;-70
2021/10/24 09:02:58;;;;;;;22.67;10.45;;;;;;;;;;5111100;27;20892;-70
2021/10/24 09:07:22;;;;;;;15.07;7.03;;;;;;;;;;5110417;27;20419;-71
2021/10/24 09:09:48;;;;;;;18.98;9.00;;;;;;;;;;5110880;28;20036;-71
2021/10/24 09:12:15;;;;;;;37.42;17.48;;;;;;;;;;5111106;28;20024;-71
2021/10/24 09:15:20;;;;;;;20.38;11.07;;;;;;;;;;5110782;27;20977;-70
2021/10/24 09:18:17;;;;;;;17.08;9.02;;;;;;;;;;5111675;27;20442;-70
2021/10/24 09:21:29;;;;;;;22.80;12.85;;;;;;;;;;5110693;27;20454;-71
2021/10/24 09:25:32;;;;;;;17.25;9.82;;;;;;;;;;5111090;27;20462;-71
2021/10/24 09:28:00;;;;;;;12.32;6.80;;;;;;;;;;5109329;28;20479;-71
2021/10/24 09:30:27;;;;;;;18.73;8.38;;;;;;;;;;5111018;28;20112;-71
2021/10/24 09:33:22;;;;;;;19.13;8.35;;;;;;;;;;5111570;27;20392;-71
2021/10/24 09:35:50;;;;;;;16.20;9.40;;;;;;;;;;5110501;28;20475;-70
2021/10/24 09:38:24;;;;;;;15.15;8.70;;;;;;;;;;5110910;28;20031;-71
2021/10/24 09:40:54;;;;;;;19.67;9.48;;;;;;;;;;5110840;28;20020;-70
2021/10/24 09:43:25;;;;;;;12.30;6.72;;;;;;;;;;5110327;28;20051;-71
2021/10/24 09:48:46;;;;;;;13.95;7.18;;;;;;;;;;5111265;27;20888;-70
2021/10/24 09:51:16;;;;;;;15.48;8.60;;;;;;;;;;5110495;28;20070;-70
2021/10/24 09:55:19;;;;;;;15.23;7.25;;;;;;;;;;5111155;27;20389;-71
2021/10/24 09:57:46;;;;;;;12.68;7.32;;;;;;;;;;5110538;28;20032;-71
2021/10/24 10:03:32;;;;;;;14.30;7.28;;;;;;;;;;5110418;27;20393;-72
2021/10/24 10:08:01;;;;;;;13.70;7.32;;;;;;;;;;5111680;27;20443;-72
2021/10/24 10:10:29;;;;;;;17.38;7.75;;;;;;;;;;5110432;28;20028;-73
2021/10/24 10:14:21;;;;;;;14.75;6.97;;;;;;;;;;5111360;27;20448;-71
2021/10/24 10:17:10;;;;;;;12.40;6.30;;;;;;;;;;5111432;27;20388;-70
2021/10/24 10:22:11;;;;;;;16.55;8.75;;;;;;;;;;5111039;27;20454;-70
2021/10/24 10:24:37;;;;;;;15.43;8.27;;;;;;;;;;5110626;28;20024;-71
2021/10/24 10:27:23;;;;;;;16.98;9.35;;;;;;;;;;5110899;28;20035;-72
2021/10/24 10:29:54;;;;;;;11.55;6.60;;;;;;;;;;5110717;28;20382;-70
2021/10/24 10:32:22;;;;;;;13.35;5.55;;;;;;;;;;5110389;28;20108;-70
2021/10/24 10:34:58;;;;;;;14.20;7.45;;;;;;;;;;5110681;28;20492;-70
2021/10/24 10:38:39;;;;;;;12.00;6.63;;;;;;;;;;5111323;27;20457;-72
2021/10/24 10:41:16;;;;;;;18.13;9.88;;;;;;;;;;5110730;28;20460;-70
2021/10/24 10:44:01;;;;;;;14.32;7.30;;;;;;;;;;5126417;28;20024;-70
2021/10/24 10:46:30;;;;;;;12.98;7.20;;;;;;;;;;5110237;28;20024;-72
2021/10/24 10:49:16;;;;;;;21.17;11.38;;;;;;;;;;5110740;28;20536;-72
2021/10/24 10:51:42;;;;;;;16.80;7.75;;;;;;;;;;5110657;28;20024;-71
2021/10/24 10:54:09;;;;;;;20.50;11.73;;;;;;;;;;5110344;28;20043;-71
2021/10/24 10:56:46;;;;;;;50.83;28.23;;;;;;;;;;5110543;28;20092;-71
2021/10/24 10:59:16;;;;;;;59.28;30.95;;;;;;;;;;5110599;28;20080;-71
2021/10/24 11:04:09;;;;;;;20.67;9.25;;;;;;;;;;5111271;27;20396;-71
2021/10/24 11:06:38;;;;;;;19.52;10.27;;;;;;;;;;5109160;28;20115;-71
2021/10/24 11:11:13;;;;;;;27.13;14.93;;;;;;;;;;5111648;27;20780;-71
2021/10/24 11:13:39;;;;;;;19.95;11.68;;;;;;;;;;5110589;28;20077;-71
2021/10/24 11:17:43;;;;;;;15.48;8.27;;;;;;;;;;5111256;27;20608;-72
2021/10/24 11:22:11;;;;;;;19.48;8.25;;;;;;;;;;5111024;27;20454;-73
2021/10/24 11:24:43;;;;;;;14.17;6.90;;;;;;;;;;5111304;28;20030;-71
2021/10/24 11:27:10;;;;;;;14.23;6.90;;;;;;;;;;5111035;28;20036;-71
2021/10/24 11:29:37;;;;;;;12.32;5.50;;;;;;;;;;5110621;28;20024;-70
2021/10/24 11:32:36;;;;;;;12.85;6.40;;;;;;;;;;5110792;28;20028;-70
2021/10/24 11:35:03;;;;;;;14.18;7.35;;;;;;;;;;5098511;28;20032;-71
2021/10/24 11:38:01;;;;;;;18.40;9.93;;;;;;;;;;5111033;27;20427;-71
2021/10/24 11:40:27;;;;;;;15.13;8.20;;;;;;;;;;5111197;28;20046;-72
2021/10/24 11:42:59;;;;;;;14.07;8.50;;;;;;;;;;5110463;28;20097;-71
2021/10/24 11:45:26;;;;;;;14.00;7.00;;;;;;;;;;5109461;28;20425;-73
2021/10/24 11:50:41;;;;;;;11.60;6.38;;;;;;;;;;5110676;27;20392;-71
2021/10/24 11:55:14;;;;;;;12.40;6.78;;;;;;;;;;5110999;27;20453;-71
2021/10/24 11:59:55;;;;;;;10.40;4.60;;;;;;;;;;5111741;27;20446;-70
2021/10/24 12:02:22;;;;;;;15.43;7.50;;;;;;;;;;5111329;28;20081;-72
2021/10/24 12:04:48;;;;;;;13.88;6.53;;;;;;;;;;5110606;28;20023;-70
2021/10/24 12:11:52;;;;;;;23.13;11.30;;;;;;;;;;5131230;27;20116;-72
2021/10/24 12:14:18;;;;;;;21.15;9.90;;;;;;;;;;5106601;28;20093;-72
2021/10/24 12:16:46;;;;;;;15.02;7.63;;;;;;;;;;5110603;28;20442;-71
2021/10/24 12:19:20;;;;;;;18.83;10.65;;;;;;;;;;5111041;28;20051;-72
2021/10/24 12:22:03;;;;;;;18.48;11.50;;;;;;;;;;5110765;28;20022;-71
2021/10/24 12:24:32;;;;;;;19.27;10.98;;;;;;;;;;5110341;28;20027;-70
2021/10/24 12:27:12;;;;;;;12.50;6.53;;;;;;;;;;5110707;28;20055;-70
2021/10/24 12:29:38;;;;;;;16.80;7.50;;;;;;;;;;5110511;28;20569;-71
2021/10/24 12:32:09;;;;;;;17.27;6.85;;;;;;;;;;5110258;28;20078;-71
2021/10/24 12:34:36;;;;;;;18.52;8.77;;;;;;;;;;5110684;28;20028;-70
2021/10/24 12:37:02;;;;;;;13.15;7.80;;;;;;;;;;5110478;28;20593;-70
2021/10/24 12:39:28;;;;;;;16.17;7.47;;;;;;;;;;5110004;28;20020;-71
2021/10/24 12:41:54;;;;;;;15.35;9.13;;;;;;;;;;5110299;28;20032;-70
2021/10/24 12:44:23;;;;;;;15.27;8.27;;;;;;;;;;5110270;28;20533;-71
2021/10/24 12:48:17;;;;;;;8.35;3.60;;;;;;;;;;5110905;27;20454;-70
2021/10/24 12:53:43;;;;;;;15.88;7.15;;;;;;;;;;5110737;27;20745;-72
2021/10/24 12:56:10;;;;;;;18.98;8.30;;;;;;;;;;5110986;28;20027;-71
2021/10/24 12:58:36;;;;;;;15.05;7.95;;;;;;;;;;5111219;28;20023;-71
2021/10/24 13:01:02;;;;;;;18.27;8.35;;;;;;;;;;5110385;28;20048;-71
2021/10/24 13:03:28;;;;;;;15.48;8.27;;;;;;;;;;5110804;28;20024;-70
2021/10/24 13:05:55;;;;;;;14.15;8.20;;;;;;;;;;5110410;28;20020;-70
2021/10/24 13:08:21;;;;;;;13.70;7.65;;;;;;;;;;5110774;28;20377;-71
2021/10/24 13:11:57;;;;;;;18.67;8.68;;;;;;;;;;5111903;27;20397;-71
2021/10/24 13:15:22;;;;;;;12.40;7.03;;;;;;;;;;5111745;27;20450;-71
2021/10/24 13:17:48;;;;;;;17.38;9.32;;;;;;;;;;5111157;28;20035;-69
2021/10/24 13:20:16;;;;;;;21.70;9.52;;;;;;;;;;5110578;28;20031;-71
2021/10/24 13:22:55;;;;;;;15.27;7.57;;;;;;;;;;5111284;28;20056;-71
2021/10/24 13:25:28;;;;;;;17.25;6.82;;;;;;;;;;5111057;28;20032;-70
2021/10/24 13:27:55;;;;;;;14.93;7.65;;;;;;;;;;5110481;28;20089;-71
2021/10/24 13:32:33;;;;;;;26.67;11.93;;;;;;;;;;5111067;27;20459;-70
2021/10/24 13:36:12;;;;;;;19.13;8.65;;;;;;;;;;5110625;27;20446;-69
2021/10/24 13:38:38;;;;;;;16.48;8.07;;;;;;;;;;5111010;28;20035;-70
2021/10/24 13:41:05;;;;;;;13.15;6.13;;;;;;;;;;5110529;28;20476;-71
2021/10/24 13:43:31;;;;;;;15.25;5.72;;;;;;;;;;5111057;28;20073;-71
2021/10/24 13:45:58;;;;;;;17.88;8.63;;;;;;;;;;5110722;28;20032;-70
2021/10/24 13:49:13;;;;;;;16.17;7.95;;;;;;;;;;5111081;27;20397;-70
2021/10/24 13:52:12;;;;;;;18.08;10.20;;;;;;;;;;5111410;27;20933;-70
2021/10/24 13:54:39;;;;;;;15.68;8.18;;;;;;;;;;5110961;28;20024;-71
2021/10/24 13:57:05;;;;;;;19.08;9.10;;;;;;;;;;5110482;28;20410;-70
2021/10/24 13:59:31;;;;;;;14.52;6.60;;;;;;;;;;5110869;28;20024;-71
2021/10/24 14:01:57;;;;;;;20.10;9.40;;;;;;;;;;5110805;28;20054;-70
2021/10/24 14:04:23;;;;;;;18.92;10.32;;;;;;;;;;5110465;28;20020;-70
2021/10/24 14:06:49;;;;;;;11.93;6.07;;;;;;;;;;5110751;28;20024;-70
2021/10/24 14:09:16;;;;;;;13.77;6.90;;;;;;;;;;5109023;28;20023;-70
2021/10/24 14:14:12;;;;;;;15.18;6.25;;;;;;;;;;5111100;27;20392;-70
2021/10/24 14:16:38;;;;;;;24.42;11.15;;;;;;;;;;5110645;28;20027;-72
2021/10/24 14:19:04;;;;;;;12.85;7.05;;;;;;;;;;5110877;28;20080;-71
2021/10/24 14:23:07;;;;;;;16.27;8.20;;;;;;;;;;5111212;27;20730;-69
2021/10/24 14:25:34;;;;;;;21.38;9.48;;;;;;;;;;5110558;28;20027;-69
2021/10/24 14:28:00;;;;;;;24.90;11.88;;;;;;;;;;5111061;28;20023;-70
2021/10/24 14:30:27;;;;;;;15.48;7.75;;;;;;;;;;5110469;28;20020;-70
2021/10/24 14:32:53;;;;;;;17.83;7.18;;;;;;;;;;5111171;28;20020;-70
2021/10/24 14:35:19;;;;;;;14.82;8.13;;;;;;;;;;5110701;28;20509;-70
2021/10/24 14:37:45;;;;;;;19.05;8.50;;;;;;;;;;5110297;28;20441;-70
2021/10/24 14:40:11;;;;;;;14.40;7.88;;;;;;;;;;5110577;28;20103;-70
2021/10/24 14:42:38;;;;;;;25.38;8.75;;;;;;;;;;5110646;28;20039;-70
2021/10/24 14:45:04;;;;;;;16.73;8.88;;;;;;;;;;5110204;28;20038;-69
2021/10/24 14:49:32;;;;;;;23.20;12.48;;;;;;;;;;5070342;28;20583;-70
2021/10/24 14:51:58;;;;;;;18.38;8.18;;;;;;;;;;5049893;28;20152;-71
2021/10/24 14:54:24;;;;;;;18.75;9.10;;;;;;;;;;5050549;28;20100;-72
2021/10/24 14:56:52;;;;;;;17.88;8.70;;;;;;;;;;5050316;28;20378;-70
2021/10/24 15:01:10;;;;;;;17.70;9.65;;;;;;;;;;5131613;27;20112;-71
2021/10/24 15:03:36;;;;;;;20.80;12.05;;;;;;;;;;5110879;28;20063;-71
2021/10/24 15:06:03;;;;;;;27.02;14.18;;;;;;;;;;5110760;28;20027;-71
2021/10/24 15:08:29;;;;;;;24.95;14.20;;;;;;;;;;5111039;28;20027;-71
2021/10/24 15:11:45;;;;;;;22.92;12.73;;;;;;;;;;5111561;27;20844;-71
2021/10/24 15:14:12;;;;;;;37.97;19.98;;;;;;;;;;5109426;28;20475;-71
2021/10/24 15:17:26;;;;;;;36.05;19.90;;;;;;;;;;5111218;27;20396;-71
2021/10/24 15:24:44;;;;;;;37.15;17.17;;;;;;;;;;5111665;27;20450;-71
2021/10/24 15:27:10;;;;;;;41.47;20.38;;;;;;;;;;5110631;28;20034;-71
2021/10/24 15:29:37;;;;;;;35.45;19.17;;;;;;;;;;5110822;28;20031;-71
2021/10/24 15:32:04;;;;;;;38.25;17.40;;;;;;;;;;5110748;28;20028;-71
2021/10/24 15:34:30;;;;;;;38.67;17.23;;;;;;;;;;5109137;28;20032;-71
2021/10/24 15:36:56;;;;;;;30.92;16.77;;;;;;;;;;5110735;28;20107;-71
2021/10/24 15:39:22;;;;;;;31.45;16.92;;;;;;;;;;5109485;28;20439;-71